Data for 10/20/2016

Time Sea-Level Adjusted Pressure Absolute Pressure Temperature Relative Humidity Dew Point   
(mb) (inHg) (mb) (inHg) (C) (F) (%) (C) (F)
00:05 1029 30.39 858 25.34 1.6 34.8 62 -5 23
00:10 1028 30.36 858 25.34 2.1 35.7 59 -5.1 22.9
00:15 1028 30.36 858 25.34 2.2 36 59 -5 23
00:20 1028 30.36 858 25.34 2 35.6 60 -5 23
00:25 1028 30.36 858 25.34 1.7 35.1 61 -5 22.9
00:30 1028 30.36 858 25.34 1.6 34.9 61 -5.1 22.9
00:35 1028 30.36 858 25.34 1.4 34.5 62 -5 23
00:40 1028 30.36 857 25.31 1.3 34.4 62 -5.1 22.8
00:45 1028 30.36 857 25.31 1.4 34.5 63 -4.8 23.3
00:50 1028 30.36 857 25.31 1.2 34.1 64 -4.9 23.2
00:55 1028 30.36 857 25.31 1.1 33.9 66 -4.5 23.8
01:00 1028 30.36 857 25.31 0.8 33.5 67 -4.6 23.7
01:05 1028 30.36 857 25.31 0.5 33 69 -4.4 24
01:10 1028 30.36 857 25.31 0.5 33 68 -4.8 23.4
01:15 1028 30.36 858 25.34 0.6 33 69 -4.5 23.9
01:20 1028 30.36 857 25.31 0.4 32.8 68 -4.8 23.4
01:25 1028 30.36 857 25.31 0.5 32.9 69 -4.6 23.7
01:30 1028 30.36 858 25.34 0.6 33 66 -5.1 22.9
01:35 1028 30.36 858 25.34 0.7 33.3 66 -4.8 23.3
01:40 1028 30.36 858 25.34 0.5 32.9 67 -5 23
01:45 1028 30.36 858 25.34 0.4 32.7 67 -5.1 22.9
01:50 1028 30.36 858 25.34 0.4 32.7 67 -5 23
01:55 1028 30.36 858 25.34 0.5 32.9 65 -5.4 22.3
02:00 1028 30.36 858 25.34 0.8 33.4 64 -5.2 22.6
02:05 1028 30.36 858 25.34 0.9 33.6 63 -5.5 22.2
02:10 1028 30.36 858 25.34 0.9 33.6 63 -5.3 22.5
02:15 1028 30.36 858 25.34 0.8 33.4 65 -5 22.9
02:20 1028 30.36 858 25.34 0.6 33 66 -5.1 22.9
02:25 1028 30.36 857 25.31 0.3 32.5 68 -5 23
02:30 1028 30.36 857 25.31 0.1 32.2 68 -5.2 22.7
02:35 1028 30.36 857 25.31 0.1 32.2 68 -5.1 22.7
02:40 1028 30.36 857 25.31 0.1 32.1 69 -4.9 23.1
02:45 1028 30.36 857 25.31 0.1 32.1 68 -5.2 22.6
02:50 1028 30.36 857 25.31 0.3 32.5 67 -5 22.9
02:55 1028 30.36 857 25.31 0.2 32.4 68 -5 23
03:00 1028 30.36 857 25.31 0.3 32.5 67 -5.1 22.8
03:05 1028 30.36 857 25.31 0.3 32.5 67 -5.2 22.6
03:10 1028 30.36 857 25.31 0.8 33.4 62 -5.7 21.8
03:15 1028 30.36 857 25.31 1.1 34 62 -5.3 22.5
03:20 1028 30.36 857 25.31 0.9 33.5 64 -5.2 22.6
03:25 1028 30.36 857 25.31 0.5 33 65 -5.3 22.4
03:30 1028 30.36 857 25.31 0.6 33.1 64 -5.4 22.3
03:35 1028 30.36 857 25.31 0.7 33.3 62 -5.8 21.6
03:40 1028 30.36 857 25.31 0.8 33.4 63 -5.6 22
03:45 1028 30.36 857 25.31 0.8 33.5 62 -5.5 22.1
03:50 1028 30.36 857 25.31 0.6 33.1 65 -5.3 22.5
03:55 1028 30.36 857 25.31 0.4 32.7 65 -5.5 22.2
04:00 1028 30.36 857 25.31 0.4 32.7 65 -5.4 22.3
04:05 1028 30.36 857 25.31 0.5 32.9 64 -5.5 22.1
04:10 1028 30.36 857 25.31 0.6 33 64 -5.5 22.2
04:15 1028 30.36 857 25.31 0.6 33.1 64 -5.4 22.2
04:20 1027 30.33 857 25.31 0.6 33.1 64 -5.5 22.1
04:25 1027 30.33 857 25.31 0.6 33 64 -5.4 22.3
04:30 1027 30.33 857 25.31 0.5 32.9 65 -5.4 22.3
04:35 1027 30.33 857 25.31 0.4 32.8 66 -5.2 22.6
04:40 1027 30.33 857 25.31 0.4 32.7 65 -5.5 22.1
04:45 1027 30.33 856 25.28 0.5 33 64 -5.6 22
04:50 1027 30.33 856 25.28 0.7 33.2 63 -5.5 22.1
04:55 1027 30.33 856 25.28 0.7 33.3 63 -5.5 22.1
05:00 1027 30.33 856 25.28 0.7 33.2 63 -5.5 22.2
05:05 1027 30.33 856 25.28 0.7 33.3 62 -5.6 21.9
05:10 1027 30.33 856 25.28 0.9 33.6 61 -5.9 21.3
05:15 1027 30.33 856 25.28 0.9 33.7 61 -5.7 21.7
05:20 1027 30.33 856 25.28 0.8 33.5 62 -5.6 21.9
05:25 1027 30.33 856 25.28 0.7 33.3 64 -5.4 22.3
05:30 1027 30.33 856 25.28 0.5 32.9 63 -5.7 21.7
05:35 1027 30.33 856 25.28 0.5 32.9 64 -5.6 21.9
05:40 1027 30.33 856 25.28 0.5 32.9 63 -5.7 21.8
05:45 1027 30.33 856 25.28 0.4 32.7 65 -5.5 22.1
05:50 1027 30.33 856 25.28 0.4 32.8 63 -5.8 21.5
05:55 1027 30.33 856 25.28 0.7 33.2 61 -6 21.2
06:00 1027 30.33 856 25.28 0.8 33.5 61 -5.9 21.4
06:05 1027 30.33 856 25.28 0.9 33.6 61 -5.8 21.5
06:10 1027 30.33 856 25.28 0.9 33.6 61 -5.7 21.7
06:15 1027 30.33 856 25.28 0.7 33.3 62 -5.8 21.6
06:20 1026 30.3 856 25.28 0.7 33.3 62 -5.7 21.7
06:25 1026 30.3 855 25.25 0.7 33.3 62 -5.7 21.8
06:30 1026 30.3 855 25.25 0.9 33.5 62 -5.7 21.8
06:35 1026 30.3 855 25.25 0.8 33.5 61 -5.8 21.6
06:40 1026 30.3 855 25.25 0.8 33.5 62 -5.7 21.7
06:45 1026 30.3 855 25.25 0.8 33.5 62 -5.7 21.8
06:50 1026 30.3 855 25.25 0.8 33.4 62 -5.7 21.7
06:55 1026 30.3 855 25.25 0.7 33.3 63 -5.6 21.8
07:00 1026 30.3 855 25.25 0.7 33.3 62 -5.7 21.7
07:05 1026 30.3 855 25.25 0.7 33.2 62 -5.8 21.6
07:10 1026 30.3 855 25.25 0.7 33.3 61 -5.9 21.4
07:15 1026 30.3 855 25.25 0.7 33.3 61 -5.9 21.3
07:20 1026 30.3 855 25.25 0.9 33.7 60 -6.1 21.1
07:25 1026 30.3 855 25.25 0.9 33.5 62 -5.7 21.7
07:30 1026 30.3 855 25.25 0.8 33.5 60 -6.1 21
07:35 1026 30.3 855 25.25 1.1 34 60 -5.9 21.4
07:40 1026 30.3 855 25.25 0.9 33.7 61 -5.9 21.5
07:45 1026 30.3 855 25.25 0.8 33.4 60 -6.1 21.1
07:50 1026 30.3 855 25.25 0.7 33.2 62 -5.7 21.8
07:55 1026 30.3 855 25.25 0.6 33.1 61 -6 21.3
08:00 1026 30.3 855 25.25 0.6 33.1 62 -5.8 21.5
08:05 1026 30.3 855 25.25 0.7 33.2 61 -6 21.3
08:10 1026 30.3 855 25.25 0.8 33.5 61 -5.8 21.5
08:15 1026 30.3 855 25.25 1 33.9 59 -6.1 21
08:20 1026 30.3 855 25.25 1.3 34.3 57 -6.2 20.8
08:25 1026 30.3 855 25.25 1.6 35 56 -6.2 20.9
08:30 1026 30.3 855 25.25 1.6 34.9 57 -6 21.3
08:35 1026 30.3 855 25.25 1.5 34.7 58 -6 21.2
08:40 1025 30.27 855 25.25 1.7 35 56 -6.2 20.8
08:45 1025 30.27 855 25.25 2.1 35.7 55 -6 21.1
08:50 1025 30.27 855 25.25 2.2 36 56 -5.7 21.8
08:55 1025 30.27 855 25.25 2.1 35.9 56 -5.7 21.7
09:00 1025 30.27 855 25.25 2.5 36.4 54 -5.8 21.5
09:05 1025 30.27 854 25.22 2.5 36.4 55 -5.7 21.8
09:10 1025 30.27 855 25.25 2.5 36.5 54 -5.8 21.5
09:15 1025 30.27 855 25.25 3 37.3 53 -5.6 21.9
09:20 1025 30.27 855 25.25 3.3 37.9 52 -5.7 21.7
09:25 1025 30.27 855 25.25 3.4 38.1 52 -5.5 22.2
09:30 1025 30.27 855 25.25 3.8 38.8 49 -5.9 21.4
09:35 1025 30.27 854 25.22 4.2 39.5 47 -6.1 21
09:40 1025 30.27 854 25.22 4.6 40.3 48 -5.5 22.2
09:45 1025 30.27 854 25.22 5.1 41.2 48 -5 23
09:50 1025 30.27 854 25.22 5.4 41.7 47 -5.1 22.9
09:55 1025 30.27 854 25.22 5 41 51 -4.3 24.3
10:00 1025 30.27 854 25.22 5.4 41.7 48 -4.8 23.3
10:05 1025 30.27 854 25.22 6 42.9 46 -4.6 23.7
10:10 1025 30.27 854 25.22 6.4 43.5 45 -4.8 23.4
10:15 1025 30.27 854 25.22 6.6 43.8 42 -5.3 22.4
10:20 1025 30.27 854 25.22 7.2 44.9 42 -4.9 23.2
10:25 1025 30.27 854 25.22 7.8 46 41 -4.7 23.5
10:30 1025 30.27 854 25.22 8.1 46.6 36 -6 21.2
10:35 1025 30.27 854 25.22 8.3 47 32 -7.4 18.6
10:40 1025 30.27 854 25.22 8.8 47.9 32 -7.1 19.2
10:45 1025 30.27 854 25.22 8.9 48.1 32 -6.9 19.6
10:50 1025 30.27 854 25.22 9 48.3 33 -6.2 20.8
10:55 1025 30.27 854 25.22 9.5 49.1 31 -6.9 19.7
11:00 1025 30.27 854 25.22 9.9 49.8 26 -8.8 16.1
11:05 1025 30.27 854 25.22 10.3 50.6 25 -8.8 16.2
11:10 1025 30.27 854 25.22 10.9 51.6 26 -7.8 17.9
11:15 1025 30.27 854 25.22 11 51.8 26 -7.7 18.2
11:20 1025 30.27 854 25.22 10.7 51.3 25 -8.3 17.1
11:25 1025 30.27 854 25.22 10.6 51.2 27 -7.8 18
11:30 1025 30.27 854 25.22 10.6 51.1 27 -7.5 18.5
11:35 1025 30.27 854 25.22 10.7 51.3 28 -6.9 19.5
11:40 1025 30.27 854 25.22 10.6 51.1 28 -6.9 19.5
11:45 1025 30.27 854 25.22 9.5 49.1 31 -6.8 19.7
11:50 1025 30.27 854 25.22 9.7 49.4 30 -7.2 19.1
11:55 1025 30.27 854 25.22 10 50 32 -6 21.2
12:00 1025 30.27 854 25.22 10.2 50.3 32 -5.8 21.5
12:05 1024 30.24 854 25.22 9.7 49.4 32 -6.2 20.8
12:10 1024 30.24 853 25.19 9.8 49.7 32 -6.1 20.9
12:15 1024 30.24 853 25.19 10.6 51.2 32 -5.5 22
12:20 1024 30.24 853 25.19 10.5 50.9 30 -6.2 20.8
12:25 1024 30.24 853 25.19 10.1 50.2 30 -6.8 19.8
12:30 1024 30.24 853 25.19 10.7 51.2 29 -6.5 20.3
12:35 1024 30.24 853 25.19 11.1 51.9 29 -6.2 20.9
12:40 1024 30.24 853 25.19 11 51.7 29 -6.2 20.9
12:45 1024 30.24 853 25.19 11.1 52 29 -6 21.1
12:50 1024 30.24 853 25.19 11.2 52.1 30 -5.9 21.4
12:55 1024 30.24 853 25.19 11 51.8 30 -5.7 21.7
13:00 1024 30.24 853 25.19 11.1 52 30 -6 21.2
13:05 1024 30.24 853 25.19 11.1 52 30 -5.6 21.9
13:10 1024 30.24 853 25.19 10.9 51.5 29 -6.3 20.6
13:15 1024 30.24 853 25.19 10.9 51.6 29 -6.3 20.7
13:20 1024 30.24 853 25.19 10.7 51.2 30 -6.2 20.8
13:25 1024 30.24 853 25.19 10.8 51.4 29 -6.5 20.2
13:30 1024 30.24 853 25.19 11 51.8 29 -6.3 20.7
13:35 1024 30.24 853 25.19 10.9 51.6 30 -5.8 21.6
13:40 1024 30.24 853 25.19 10.7 51.2 31 -5.7 21.7
13:45 1024 30.24 853 25.19 10.9 51.6 31 -5.7 21.7
13:50 1024 30.24 853 25.19 11.1 52 31 -5.6 22
13:55 1024 30.24 853 25.19 10.7 51.3 31 -5.8 21.6
14:00 1023 30.21 853 25.19 10.6 51.1 30 -6.1 21.1
14:05 1023 30.21 853 25.19 10.7 51.2 30 -6.3 20.7
14:10 1023 30.21 852 25.16 10.8 51.5 31 -5.8 21.5
14:15 1023 30.21 852 25.16 11.2 52.1 29 -6.3 20.6
14:20 1023 30.21 852 25.16 11.2 52.1 30 -5.9 21.4
14:25 1023 30.21 852 25.16 11.3 52.3 29 -5.9 21.4
14:30 1023 30.21 852 25.16 11.5 52.6 29 -5.8 21.5
14:35 1023 30.21 852 25.16 11.6 52.9 29 -5.8 21.5
14:40 1023 30.21 852 25.16 11.8 53.2 28 -5.9 21.4
14:45 1023 30.21 852 25.16 11.9 53.4 28 -6 21.1
14:50 1023 30.21 852 25.16 11.9 53.5 28 -6 21.1
14:55 1023 30.21 852 25.16 11.7 53.1 28 -6.2 20.9
15:00 1023 30.21 852 25.16 11.6 53 28 -6.1 21
15:05 1023 30.21 852 25.16 11.5 52.6 27 -6.7 20
15:10 1022 30.18 852 25.16 11.5 52.7 28 -6.5 20.3
15:15 1023 30.21 852 25.16 11.6 52.9 28 -6.4 20.6
15:20 1023 30.21 852 25.16 11.3 52.3 29 -6.3 20.7
15:25 1022 30.18 852 25.16 11.3 52.4 29 -6.1 21
15:30 1022 30.18 852 25.16 11.5 52.8 28 -6.1 21
15:35 1022 30.18 852 25.16 11.6 53 28 -6 21.1
15:40 1022 30.18 852 25.16 12 53.6 28 -6 21.2
15:45 1022 30.18 852 25.16 12.4 54.4 27 -5.8 21.5
15:50 1022 30.18 851 25.13 12.9 55.2 27 -5.7 21.8
15:55 1022 30.18 851 25.13 12.8 55 28 -5.4 22.2
16:00 1022 30.18 851 25.13 12.6 54.7 28 -5.4 22.4
16:05 1022 30.18 851 25.13 12.4 54.3 28 -5.6 21.9
16:10 1022 30.18 851 25.13 12.3 54.2 28 -5.5 22.2
16:15 1022 30.18 851 25.13 12.3 54.2 29 -5.4 22.3
16:20 1022 30.18 851 25.13 12 53.6 29 -5.4 22.3
16:25 1022 30.18 851 25.13 11.9 53.4 30 -5.1 22.7
16:30 1022 30.18 851 25.13 12 53.6 29 -5.4 22.4
16:35 1022 30.18 851 25.13 12 53.5 29 -5.5 22.2
16:40 1022 30.18 851 25.13 12 53.7 29 -5.6 22
16:45 1022 30.18 851 25.13 12 53.5 30 -5 22.9
16:50 1022 30.18 851 25.13 11.9 53.5 29 -5.3 22.5
16:55 1022 30.18 851 25.13 11.9 53.4 30 -5.3 22.5
17:00 1022 30.18 851 25.13 12 53.5 30 -5.2 22.7
17:05 1022 30.18 851 25.13 12 53.6 31 -4.7 23.5
17:10 1022 30.18 851 25.13 11.9 53.3 31 -4.9 23.2
17:15 1022 30.18 851 25.13 11.7 53.1 31 -4.9 23.1
17:20 1022 30.18 851 25.13 11.7 53.1 31 -4.8 23.3
17:25 1022 30.18 851 25.13 11.7 53.1 31 -4.9 23.2
17:30 1022 30.18 851 25.13 11.8 53.2 32 -4.5 23.9
17:35 1022 30.18 851 25.13 11.8 53.3 31 -4.6 23.7
17:40 1022 30.18 851 25.13 11.8 53.2 31 -4.7 23.5
17:45 1022 30.18 851 25.13 11.6 52.9 32 -4.6 23.7
17:50 1022 30.18 851 25.13 11.7 53 32 -4.6 23.7
17:55 1022 30.18 851 25.13 11.7 53.1 32 -4.5 24
18:00 1022 30.18 851 25.13 11.6 52.8 33 -4.1 24.5
18:05 1022 30.18 851 25.13 11.4 52.5 32 -4.5 23.9
18:10 1022 30.18 851 25.13 11.4 52.5 33 -4.3 24.3
18:15 1022 30.18 851 25.13 11.4 52.5 33 -4.1 24.6
18:20 1022 30.18 851 25.13 11.4 52.5 34 -3.8 25.1
18:25 1022 30.18 851 25.13 11.1 52.1 37 -3 26.6
18:30 1021 30.15 851 25.13 11 51.8 34 -4.4 24
18:35 1021 30.15 851 25.13 10.8 51.5 40 -2.3 27.8
18:40 1021 30.15 851 25.13 10.6 51.1 36 -3.8 25.2
18:45 1021 30.15 851 25.13 10.7 51.2 35 -4.2 24.5
18:50 1021 30.15 851 25.13 10.9 51.5 33 -4.6 23.6
18:55 1021 30.15 851 25.13 11.6 52.8 33 -4.3 24.3
19:00 1021 30.15 850 25.1 11.8 53.3 33 -4.1 24.7
19:05 1021 30.15 850 25.1 11.9 53.4 33 -4 24.9
19:10 1021 30.15 850 25.1 12 53.5 33 -3.9 25.1
19:15 1021 30.15 850 25.1 11.8 53.3 34 -3.7 25.4
19:20 1021 30.15 850 25.1 11.5 52.6 39 -2 28.5
19:25 1021 30.15 850 25.1 10.6 51.2 43 -1.5 29.3
19:30 1021 30.15 850 25.1 10.1 50.3 41 -2.3 27.8
19:35 1021 30.15 850 25.1 10 50.1 43 -1.9 28.7
19:40 1021 30.15 850 25.1 9.8 49.7 44 -1.9 28.5
19:45 1021 30.15 850 25.1 9.9 49.8 43 -2.1 28.2
19:50 1021 30.15 850 25.1 9.8 49.7 43 -2.1 28.2
19:55 1021 30.15 850 25.1 9.8 49.7 43 -2 28.5
20:00 1021 30.15 850 25.1 9.8 49.7 42 -2.5 27.5
20:05 1021 30.15 850 25.1 10.1 50.2 41 -2.4 27.6
20:10 1021 30.15 850 25.1 10.3 50.6 38 -3.2 26.2
20:15 1021 30.15 850 25.1 10.8 51.4 37 -3.4 25.9
20:20 1021 30.15 850 25.1 11 51.8 35 -3.7 25.4
20:25 1021 30.15 850 25.1 11.4 52.5 35 -3.6 25.5
20:30 1021 30.15 850 25.1 11.5 52.7 35 -3.4 25.9
20:35 1020 30.12 850 25.1 11.4 52.4 35 -3.5 25.7
20:40 1020 30.12 850 25.1 11.3 52.3 36 -3.2 26.3
20:45 1020 30.12 850 25.1 11.2 52.1 36 -3.5 25.7
20:50 1020 30.12 849 25.07 11.4 52.6 35 -3.4 25.8
20:55 1020 30.12 849 25.07 11.5 52.6 34 -3.7 25.3
21:00 1020 30.12 849 25.07 11.5 52.8 35 -3.5 25.6
21:05 1020 30.12 849 25.07 11.6 52.8 35 -3.4 26
21:10 1020 30.12 849 25.07 11.6 52.8 35 -3.4 25.8
21:15 1020 30.12 849 25.07 11.6 52.8 35 -3.5 25.8
21:20 1020 30.12 849 25.07 11.6 52.8 34 -3.5 25.7
21:25 1020 30.12 849 25.07 11.6 52.9 36 -3 26.5
21:30 1020 30.12 850 25.1 11.4 52.5 36 -2.9 26.7
21:35 1020 30.12 850 25.1 11.3 52.3 37 -2.7 27.1
21:40 1020 30.12 850 25.1 11.1 52 38 -2.7 27.2
21:45 1020 30.12 850 25.1 11.1 52 37 -2.9 26.8
21:50 1020 30.12 850 25.1 11.3 52.3 37 -3 26.6
21:55 1020 30.12 849 25.07 11.3 52.4 37 -2.8 27
22:00 1020 30.12 849 25.07 11.3 52.3 37 -3 26.6
22:05 1020 30.12 849 25.07 11.3 52.4 37 -2.9 26.8
22:10 1020 30.12 849 25.07 11.3 52.3 37 -2.8 26.9
22:15 1020 30.12 849 25.07 11.3 52.3 36 -3.1 26.4
22:20 1020 30.12 849 25.07 11.3 52.4 36 -3 26.6
22:25 1020 30.12 849 25.07 11.2 52.1 37 -2.8 26.9
22:30 1020 30.12 849 25.07 11.1 52 37 -2.8 26.9
22:35 1020 30.12 849 25.07 11.1 51.9 37 -2.9 26.8
22:40 1020 30.12 849 25.07 11.1 52 37 -3 26.7
22:45 1020 30.12 849 25.07 11.1 52 37 -2.9 26.8
22:50 1020 30.12 849 25.07 11.1 52 38 -2.6 27.4
22:55 1020 30.12 849 25.07 10.9 51.7 39 -2.4 27.7
23:00 1020 30.12 849 25.07 10.8 51.5 39 -2.4 27.7
23:05 1020 30.12 849 25.07 10.7 51.2 41 -2.1 28.2
23:10 1020 30.12 849 25.07 10.4 50.7 42 -2 28.4
23:15 1020 30.12 849 25.07 10.2 50.3 42 -2.2 28
23:20 1020 30.12 849 25.07 10.3 50.5 41 -2.3 27.9
23:25 1020 30.12 849 25.07 10.6 51.1 39 -2.8 27
23:30 1020 30.12 849 25.07 11.3 52.3 37 -2.9 26.9
23:35 1020 30.12 849 25.07 11.7 53 36 -3 26.6
23:40 1020 30.12 849 25.07 12 53.7 34 -3.3 26
23:45 1020 30.12 849 25.07 12.2 53.9 35 -2.8 26.9
23:50 1020 30.12 849 25.07 12 53.6 34 -3.2 26.2
23:55 1020 30.12 849 25.07 12 53.7 35 -3.1 26.5
24:00 1020 30.12 849 25.07 12 53.6 34 -3.3 26.1